KMAF/MAF METAR and TAF weather

Enter ICAO airport designator
Station Type Date Time Source
KMAF METAR 2022/12/10 02:53 UTC NOAA

KMAF 100253Z 14004KT 2 1/2SM BR BKN014 14/14 A3005 RMK AO2 SLP151 T01390139 51007


Station Type Date Time Source
KMAF Decoded METAR 2022/12/10 02:53 UTC NOAA

MIDLAND INTERNATIONAL AIRPORT , TX, United States (KMAF) 31-56N 102-12W 872M
Dec 09, 2022 - 09:53 PM EST / 2022.12.10 0253 UTC
Wind: from the SE (140 degrees) at 5 MPH (4 KT):0
Visibility: 2 1/2 mile(s):0
Sky conditions: mostly cloudy
Weather: mist
Temperature: 57.0 F (13.9 C)
Dew Point: 57.0 F (13.9 C)
Relative Humidity: 100%
Pressure (altimeter): 30.05 in. Hg (1017 hPa)
Pressure tendency: 0.02 inches (0.7 hPa) higher than three hours ago
ob: KMAF 100253Z 14004KT 2 1/2SM BR BKN014 14/14 A3005 RMK AO2 SLP151 T01390139 51007
cycle: 3

Station Type Date Time Source
KMAF TAF 2022/12/10 03:03 UTC NOAA

TAF
AMD KMAF 100300Z 1003/1024 VRB05KT 2SM BR SCT001 OVC015
TEMPO 1003/1005 1/2SM FG BKN001
FM100500 14007KT 1/2SM FG OVC001

Example: see airport list